createdAt,value
2022-09-13T00:02:21.007Z,51332.91
2022-09-13T00:04:48.110Z,51301.09
2022-09-13T00:07:15.228Z,51342.84
2022-09-13T00:09:42.293Z,51321.00
2022-09-13T00:12:09.378Z,51303.09
2022-09-13T00:14:36.419Z,51305.09
2022-09-13T00:17:03.722Z,51346.84
2022-09-13T00:19:30.839Z,51328.94
2022-09-13T00:21:57.869Z,51326.94
2022-09-13T00:24:25.102Z,51319.00
2022-09-13T00:26:52.150Z,51319.00
2022-09-13T00:29:19.235Z,51352.78
2022-09-13T00:31:46.318Z,51307.06
2022-09-13T00:34:13.530Z,51346.84
2022-09-13T00:36:40.671Z,51321.00
2022-09-13T00:39:07.700Z,51364.72
2022-09-13T00:41:34.954Z,51307.06
2022-09-13T00:44:03.274Z,51324.97
2022-09-13T00:46:44.683Z,51322.97
2022-09-13T00:49:46.001Z,51326.94
2022-09-13T00:52:19.976Z,51307.06
2022-09-13T00:54:53.122Z,51324.97
2022-09-13T00:57:22.434Z,51317.00
2022-09-13T00:59:59.348Z,51313.03
2022-09-13T01:02:28.815Z,51317.00
2022-09-13T01:04:56.534Z,51332.91
2022-09-13T01:07:23.799Z,51295.16
2022-09-13T01:09:53.038Z,51338.88
2022-09-13T01:12:43.431Z,51326.94
2022-09-13T01:15:11.754Z,51322.97
2022-09-13T01:17:40.062Z,51317.00
2022-09-13T01:20:09.651Z,51332.91
2022-09-13T01:22:45.498Z,51322.97
2022-09-13T01:25:35.087Z,51330.94
2022-09-13T01:28:51.557Z,51328.94
2022-09-13T01:31:36.330Z,51354.78
2022-09-13T01:34:15.155Z,51321.00
2022-09-13T01:37:00.258Z,51332.91
2022-09-13T01:39:48.585Z,51328.94
2022-09-13T01:42:40.402Z,51328.94
2022-09-13T01:45:28.762Z,51319.00
2022-09-13T01:48:14.220Z,51315.03
2022-09-13T01:50:49.469Z,51317.00
2022-09-13T01:53:38.734Z,51321.00
2022-09-13T01:56:29.128Z,51317.00
2022-09-13T01:59:42.864Z,51330.94
2022-09-13T02:02:36.844Z,51332.91
2022-09-13T02:05:37.840Z,51344.84
2022-09-13T02:08:23.497Z,51289.19
2022-09-13T02:11:12.872Z,51321.00
2022-09-13T02:13:47.268Z,51348.81
2022-09-13T02:16:31.257Z,51338.88
2022-09-13T02:19:07.100Z,51313.03
2022-09-13T02:21:39.347Z,51321.00
2022-09-13T02:24:12.869Z,51305.09
2022-09-13T02:26:42.123Z,51328.94
2022-09-13T02:29:17.056Z,51305.09
2022-09-13T02:32:17.322Z,51340.88
2022-09-13T02:34:57.440Z,51354.78
2022-09-13T02:37:28.210Z,51336.91
2022-09-13T02:40:03.676Z,51322.97
2022-09-13T02:43:22.695Z,51315.03
2022-09-13T02:46:18.927Z,51319.00
2022-09-13T02:49:51.663Z,51322.97
2022-09-13T02:52:43.567Z,51317.00
2022-09-13T02:55:34.528Z,51317.00
2022-09-13T02:58:48.972Z,51336.91
2022-09-13T03:01:16.324Z,51322.97
2022-09-13T03:03:44.520Z,51348.81
2022-09-13T03:06:11.569Z,51338.88
2022-09-13T03:08:39.055Z,51344.84
2022-09-13T03:11:15.736Z,51307.06
2022-09-13T03:14:09.946Z,51328.94
2022-09-13T03:16:48.054Z,51297.13
2022-09-13T03:19:54.673Z,51336.91
2022-09-13T03:23:08.411Z,51334.91
2022-09-13T03:25:51.981Z,51334.91
2022-09-13T03:28:41.207Z,51305.09
2022-09-13T03:31:21.331Z,51324.97
2022-09-13T03:34:13.947Z,51307.06
2022-09-13T03:36:52.633Z,51324.97
2022-09-13T03:40:08.310Z,51328.94
2022-09-13T03:42:48.494Z,51299.13
2022-09-13T03:45:19.460Z,51324.97
2022-09-13T03:47:49.375Z,51370.69
2022-09-13T03:50:24.237Z,51342.84
2022-09-13T03:53:05.078Z,51348.81
2022-09-13T03:55:34.306Z,51340.88
2022-09-13T03:58:01.472Z,51317.00
2022-09-13T04:00:29.511Z,51328.94
2022-09-13T04:02:56.585Z,51315.03
2022-09-13T04:05:23.632Z,51321.00
2022-09-13T04:07:50.701Z,51330.94
2022-09-13T04:10:17.746Z,51348.81
2022-09-13T04:12:44.945Z,51338.88
2022-09-13T04:15:12.115Z,51372.69
2022-09-13T04:17:39.191Z,51324.97
2022-09-13T04:20:06.814Z,51328.94
2022-09-13T04:22:33.905Z,51332.91
2022-09-13T04:25:02.624Z,51344.84
2022-09-13T04:27:29.951Z,51319.00
2022-09-13T04:29:57.067Z,51322.97
2022-09-13T04:32:24.583Z,51332.91
2022-09-13T04:34:51.665Z,51326.94
2022-09-13T04:37:18.712Z,51350.81
2022-09-13T04:39:45.864Z,51360.75
2022-09-13T04:42:13.535Z,51386.59
2022-09-13T04:44:40.651Z,51358.75
2022-09-13T04:47:08.992Z,51332.91
2022-09-13T04:49:36.046Z,51324.97
2022-09-13T04:52:03.524Z,51344.84
2022-09-13T04:54:31.348Z,51330.94
2022-09-13T04:56:58.392Z,51352.78
2022-09-13T04:59:25.439Z,51356.78
2022-09-13T05:01:52.616Z,51350.81
2022-09-13T05:04:19.724Z,51336.91
2022-09-13T05:06:48.657Z,51354.78
2022-09-13T05:09:16.323Z,51348.81
2022-09-13T05:11:43.570Z,51358.75
2022-09-13T05:14:11.639Z,51324.97
2022-09-13T05:16:39.129Z,51336.91
2022-09-13T05:19:06.319Z,51324.97
2022-09-13T05:21:33.579Z,51346.84
2022-09-13T05:24:00.860Z,51340.88
2022-09-13T05:26:33.583Z,51358.75
2022-09-13T05:29:04.069Z,51388.59
2022-09-13T05:31:40.911Z,51346.84
2022-09-13T05:34:12.874Z,51358.75
2022-09-13T05:36:40.635Z,51372.69
2022-09-13T05:39:29.639Z,51370.69
2022-09-13T05:42:00.116Z,51368.69
2022-09-13T05:44:27.169Z,51356.78
2022-09-13T05:46:54.148Z,51338.88
2022-09-13T05:49:21.130Z,51366.72
2022-09-13T05:51:48.240Z,51364.72
2022-09-13T05:54:15.364Z,51356.78
2022-09-13T05:56:42.514Z,51376.66
2022-09-13T05:59:14.549Z,51390.56
2022-09-13T06:01:42.135Z,51348.81
2022-09-13T06:04:09.349Z,51384.59
2022-09-13T06:06:36.591Z,51404.50
2022-09-13T06:09:06.482Z,51364.72
2022-09-13T06:11:33.609Z,51362.75
2022-09-13T06:14:00.638Z,51376.66
2022-09-13T06:16:27.771Z,51390.56
2022-09-13T06:18:55.080Z,51400.50
2022-09-13T06:21:28.314Z,51442.25
2022-09-13T06:23:57.003Z,51384.59
2022-09-13T06:26:27.154Z,51384.59
2022-09-13T06:28:57.100Z,51422.38
2022-09-13T06:31:27.412Z,51408.47
2022-09-13T06:34:02.342Z,51428.34
2022-09-13T06:36:30.085Z,51400.50
2022-09-13T06:38:58.130Z,51412.44
2022-09-13T06:41:27.308Z,51410.44
2022-09-13T06:43:57.641Z,51426.34
2022-09-13T06:46:27.045Z,51440.28
2022-09-13T06:48:54.841Z,51420.41
2022-09-13T06:51:25.009Z,51440.28
2022-09-13T06:53:53.588Z,51470.09
2022-09-13T06:56:28.777Z,51462.16
2022-09-13T06:58:59.240Z,51444.25
2022-09-13T07:01:36.738Z,51442.25
2022-09-13T07:04:12.602Z,51436.28
2022-09-13T07:06:43.051Z,51448.22
2022-09-13T07:09:14.880Z,51450.22
2022-09-13T07:11:42.590Z,51480.03
2022-09-13T07:14:13.789Z,51466.13
2022-09-13T07:16:41.004Z,51470.09
2022-09-13T07:19:13.927Z,51468.09
2022-09-13T07:21:43.926Z,51482.03
2022-09-13T07:24:11.771Z,51484.00
2022-09-13T07:26:39.459Z,51486.00
2022-09-13T07:29:10.613Z,51503.91
2022-09-13T07:31:41.155Z,51535.69
2022-09-13T07:34:14.615Z,51529.75
2022-09-13T07:36:42.533Z,51529.75
2022-09-13T07:39:13.730Z,51539.69
2022-09-13T07:41:43.473Z,51533.72
2022-09-13T07:44:11.997Z,51555.59
2022-09-13T07:46:45.921Z,51507.88
2022-09-13T07:49:19.067Z,51486.00
2022-09-13T07:51:46.553Z,51499.91
2022-09-13T07:54:16.508Z,51484.00
2022-09-13T07:56:44.617Z,51460.16
2022-09-13T07:59:15.276Z,51495.94
2022-09-13T08:01:48.432Z,51452.19
2022-09-13T08:04:21.149Z,51466.13
2022-09-13T08:06:58.906Z,51460.16
2022-09-13T08:09:26.034Z,51466.13
2022-09-13T08:11:53.795Z,51478.03
2022-09-13T08:14:23.159Z,51482.03
2022-09-13T08:16:50.893Z,51491.97
2022-09-13T08:19:19.647Z,51454.19
2022-09-13T08:21:47.036Z,51440.28
2022-09-13T08:24:21.440Z,51539.69
2022-09-13T08:26:49.632Z,51511.84
2022-09-13T08:29:17.294Z,51488.00
2022-09-13T08:31:45.029Z,51509.84
2022-09-13T08:34:15.162Z,51489.97
2022-09-13T08:36:43.681Z,51499.91
2022-09-13T08:39:13.984Z,51531.72
2022-09-13T08:41:45.385Z,51507.88
2022-09-13T08:44:35.477Z,51523.78
2022-09-13T08:47:44.549Z,51480.03
2022-09-13T08:50:39.281Z,51505.88
2022-09-13T08:53:06.342Z,51491.97
2022-09-13T08:56:07.537Z,51499.91
2022-09-13T08:59:14.441Z,51539.69
2022-09-13T09:02:21.193Z,51489.97
2022-09-13T09:05:04.440Z,51511.84
2022-09-13T09:07:44.481Z,51470.09
2022-09-13T09:10:18.577Z,51517.81
2022-09-13T09:12:49.766Z,51525.75
2022-09-13T09:15:27.687Z,51523.78
2022-09-13T09:18:19.776Z,51511.84
2022-09-13T09:20:56.538Z,51543.66
2022-09-13T09:23:53.055Z,51531.72
2022-09-13T09:26:29.156Z,51539.69
2022-09-13T09:29:05.943Z,51543.66
2022-09-13T09:31:45.331Z,51555.59
2022-09-13T09:34:45.512Z,51559.56
2022-09-13T09:37:26.126Z,51599.31
2022-09-13T09:39:56.220Z,51623.19
2022-09-13T09:42:28.624Z,51603.31
2022-09-13T09:45:33.859Z,51599.31
2022-09-13T09:48:15.280Z,51605.28
2022-09-13T09:50:50.872Z,51589.38
2022-09-13T09:53:54.035Z,51593.38
2022-09-13T09:56:30.513Z,51609.28
2022-09-13T09:58:57.726Z,51605.28
2022-09-13T10:01:30.682Z,51597.34
2022-09-13T10:04:13.138Z,51583.41
2022-09-13T10:06:42.125Z,51555.59
2022-09-13T10:09:18.235Z,51553.59
2022-09-13T10:11:58.144Z,51583.41
2022-09-13T10:14:34.682Z,51591.38
2022-09-13T10:17:27.893Z,51670.91
2022-09-13T10:20:15.905Z,51645.06
2022-09-13T10:22:42.985Z,51639.09
2022-09-13T10:25:31.874Z,51672.91
2022-09-13T10:28:00.562Z,51674.88
2022-09-13T10:30:57.715Z,51623.19
2022-09-13T10:33:36.607Z,51651.03
2022-09-13T10:36:29.516Z,51643.06
2022-09-13T10:39:13.437Z,51609.28
2022-09-13T10:41:42.886Z,51619.22
2022-09-13T10:44:37.799Z,51643.06
2022-09-13T10:47:11.323Z,51662.94
2022-09-13T10:49:54.150Z,51666.94
2022-09-13T10:52:29.435Z,51690.78
2022-09-13T10:55:21.075Z,51692.78
2022-09-13T10:58:08.339Z,51664.94
2022-09-13T11:00:44.391Z,51635.13
2022-09-13T11:03:40.785Z,51645.06
2022-09-13T11:06:32.301Z,51645.06
2022-09-13T11:10:10.130Z,51658.97
2022-09-13T11:13:07.533Z,51647.03
2022-09-13T11:15:56.116Z,51625.19
2022-09-13T11:18:54.904Z,51627.16
2022-09-13T11:21:58.333Z,51635.13
2022-09-13T11:25:10.434Z,51655.00
2022-09-13T11:28:15.147Z,51694.75
2022-09-13T11:31:43.765Z,51718.63
2022-09-13T11:35:10.984Z,51776.28
2022-09-13T11:38:15.570Z,51857.81
2022-09-13T11:41:11.719Z,51843.88
2022-09-13T11:43:56.306Z,51897.56
2022-09-13T11:46:42.137Z,51911.50
2022-09-13T11:49:42.740Z,52080.50
2022-09-13T11:52:30.034Z,52090.44
2022-09-13T11:55:21.654Z,52128.22
2022-09-13T11:58:00.812Z,52028.81
2022-09-13T12:00:42.301Z,51991.03
2022-09-13T12:03:28.323Z,52140.16
2022-09-13T12:06:01.711Z,52271.41
2022-09-13T12:08:45.672Z,52128.22
2022-09-13T12:11:25.418Z,51997.00
2022-09-13T12:13:58.297Z,52002.97
2022-09-13T12:16:50.630Z,51953.25
2022-09-13T12:19:28.563Z,51969.16
2022-09-13T12:22:00.132Z,51995.00
2022-09-13T12:24:48.718Z,51971.16
2022-09-13T12:27:40.350Z,52140.16
2022-09-13T12:30:16.482Z,52209.75
2022-09-13T12:32:47.509Z,52030.78
2022-09-13T12:35:54.433Z,52044.72
2022-09-13T12:38:55.928Z,52032.78
2022-09-13T12:41:50.914Z,52016.88
2022-09-13T12:44:45.060Z,52128.22
2022-09-13T12:47:39.687Z,51937.34
2022-09-13T12:50:41.995Z,51822.00
2022-09-13T12:53:20.250Z,51810.09
2022-09-13T12:56:14.816Z,51774.28
2022-09-13T12:59:10.289Z,51778.28
2022-09-13T13:01:38.180Z,51764.34
2022-09-13T13:04:28.636Z,51778.28
2022-09-13T13:07:22.935Z,51776.28
2022-09-13T13:09:54.733Z,51778.28
2022-09-13T13:12:36.828Z,51800.16
2022-09-13T13:15:16.133Z,51839.91
2022-09-13T13:17:51.182Z,51879.69
2022-09-13T13:21:08.184Z,51957.22
2022-09-13T13:23:37.396Z,51998.97
2022-09-13T13:26:58.451Z,52070.56
2022-09-13T13:29:31.523Z,52068.56
2022-09-13T13:32:07.945Z,52219.72
2022-09-13T13:34:45.092Z,52384.75
2022-09-13T13:37:12.091Z,52311.19
2022-09-13T13:39:41.472Z,52335.03
2022-09-13T13:42:27.235Z,52265.44
2022-09-13T13:44:54.317Z,52189.88
2022-09-13T13:47:21.270Z,52108.34
2022-09-13T13:50:15.399Z,52070.56
2022-09-13T13:52:48.646Z,52032.78
2022-09-13T13:55:46.941Z,51905.53
2022-09-13T13:58:47.182Z,51905.53
2022-09-13T14:01:30.505Z,51901.56
2022-09-13T14:04:18.772Z,51806.09
2022-09-13T14:07:19.453Z,51786.22
2022-09-13T14:10:14.505Z,51770.31
2022-09-13T14:13:13.002Z,51766.34
2022-09-13T14:16:11.424Z,51820.03
2022-09-13T14:19:29.431Z,51804.13
2022-09-13T14:22:20.992Z,51826.00
2022-09-13T14:24:58.986Z,51820.03
2022-09-13T14:27:35.985Z,51782.25
2022-09-13T14:30:16.189Z,51732.53
2022-09-13T14:32:47.441Z,51778.28
2022-09-13T14:35:38.295Z,51770.31
2022-09-13T14:38:27.032Z,51756.41
2022-09-13T14:40:59.319Z,51746.47
2022-09-13T14:43:29.594Z,51712.66
2022-09-13T14:46:38.983Z,51762.38
2022-09-13T14:49:16.232Z,51744.47
2022-09-13T14:51:52.695Z,51716.63
2022-09-13T14:54:44.150Z,51694.75
2022-09-13T14:57:29.790Z,51698.75
2022-09-13T15:00:20.206Z,51672.91
2022-09-13T15:02:59.911Z,51698.75
2022-09-13T15:05:32.830Z,51682.84
2022-09-13T15:08:00.810Z,51684.81
2022-09-13T15:10:46.686Z,51664.94
2022-09-13T15:13:15.978Z,51720.59
2022-09-13T15:15:45.393Z,51714.66
2022-09-13T15:18:21.218Z,51696.75
2022-09-13T15:21:01.900Z,51696.75
2022-09-13T15:23:36.908Z,51724.59
2022-09-13T15:26:10.025Z,51718.63
2022-09-13T15:29:02.186Z,51702.72
2022-09-13T15:31:33.349Z,51720.59
2022-09-13T15:34:23.869Z,51750.44
2022-09-13T15:37:14.888Z,51706.69
2022-09-13T15:40:19.642Z,51704.69
2022-09-13T15:42:49.361Z,51680.84
2022-09-13T15:45:18.788Z,51694.75
2022-09-13T15:47:49.709Z,51694.75
2022-09-13T15:50:27.321Z,51670.91
2022-09-13T15:52:56.100Z,51656.97
2022-09-13T15:55:24.380Z,51651.03
2022-09-13T15:57:51.883Z,51672.91
2022-09-13T16:00:27.778Z,51686.81
2022-09-13T16:02:54.988Z,51688.78
2022-09-13T16:05:22.585Z,51670.91
2022-09-13T16:07:49.872Z,51666.94
2022-09-13T16:10:22.460Z,51686.81
2022-09-13T16:12:51.648Z,51666.94
2022-09-13T16:15:19.000Z,51668.91
2022-09-13T16:17:46.326Z,51655.00
2022-09-13T16:20:16.091Z,51662.94
2022-09-13T16:22:43.249Z,51639.09
2022-09-13T16:25:13.680Z,51639.09
2022-09-13T16:27:43.675Z,51619.22
2022-09-13T16:30:14.416Z,51664.94
2022-09-13T16:32:41.795Z,51651.03
2022-09-13T16:35:10.501Z,51655.00
2022-09-13T16:37:40.013Z,51633.13
2022-09-13T16:40:10.105Z,51641.09
2022-09-13T16:42:37.382Z,51623.19
2022-09-13T16:45:05.156Z,51631.13
2022-09-13T16:47:32.297Z,51615.22
2022-09-13T16:49:59.754Z,51649.03
2022-09-13T16:52:28.903Z,51617.22
2022-09-13T16:54:57.071Z,51625.19
2022-09-13T16:57:24.687Z,51611.25
2022-09-13T16:59:54.340Z,51637.09
2022-09-13T17:02:21.607Z,51621.19
2022-09-13T17:04:48.803Z,51597.34
2022-09-13T17:07:15.925Z,51595.34
2022-09-13T17:09:43.646Z,51607.28
2022-09-13T17:12:13.465Z,51585.41
2022-09-13T17:14:47.481Z,51605.28
2022-09-13T17:17:18.680Z,51599.31
2022-09-13T17:19:45.911Z,51615.22
2022-09-13T17:22:13.061Z,51597.34
2022-09-13T17:24:40.899Z,51577.47
2022-09-13T17:27:08.084Z,51597.34
2022-09-13T17:29:35.885Z,51581.44
2022-09-13T17:32:05.894Z,51543.66
2022-09-13T17:34:34.700Z,51557.56
2022-09-13T17:37:03.679Z,51581.44
2022-09-13T17:39:31.415Z,51567.50
2022-09-13T17:41:58.908Z,51569.50
2022-09-13T17:44:26.190Z,51587.41
2022-09-13T17:46:53.382Z,51577.47
2022-09-13T17:49:20.580Z,51579.44
2022-09-13T17:51:47.646Z,51573.47
2022-09-13T17:54:14.773Z,51535.69
2022-09-13T17:56:44.656Z,51539.69
2022-09-13T17:59:18.354Z,51561.56
2022-09-13T18:01:51.724Z,51551.63
2022-09-13T18:04:22.570Z,51513.84
2022-09-13T18:06:52.699Z,51523.78
2022-09-13T18:09:20.804Z,51525.75
2022-09-13T18:11:47.941Z,51559.56
2022-09-13T18:14:17.538Z,51531.72
2022-09-13T18:16:45.057Z,51529.75
2022-09-13T18:19:12.761Z,51549.63
2022-09-13T18:21:40.691Z,51515.81
2022-09-13T18:24:07.897Z,51515.81
2022-09-13T18:26:35.986Z,51503.91
2022-09-13T18:29:07.617Z,51535.69
2022-09-13T18:31:36.309Z,51515.81
2022-09-13T18:34:11.934Z,51521.78
2022-09-13T18:36:39.908Z,51517.81
2022-09-13T18:39:11.125Z,51468.09
2022-09-13T18:41:40.774Z,51545.66
2022-09-13T18:44:10.465Z,51511.84
2022-09-13T18:46:38.267Z,51499.91
2022-09-13T18:49:06.822Z,51527.75
2022-09-13T18:51:44.937Z,51484.00
2022-09-13T18:54:17.964Z,51488.00
2022-09-13T18:56:47.326Z,51507.88
2022-09-13T18:59:14.920Z,51472.09
2022-09-13T19:01:44.243Z,51495.94
2022-09-13T19:04:20.157Z,51472.09
2022-09-13T19:06:50.642Z,51488.00
2022-09-13T19:09:20.641Z,51480.03
2022-09-13T19:11:50.596Z,51509.84
2022-09-13T19:14:27.079Z,51470.09
2022-09-13T19:16:57.184Z,51478.03
2022-09-13T19:19:24.895Z,51525.75
2022-09-13T19:21:52.100Z,51541.66
2022-09-13T19:26:51.049Z,51499.91
2022-09-13T19:29:23.226Z,51559.56
2022-09-13T19:31:52.526Z,51478.03
2022-09-13T19:34:22.501Z,51480.03
2022-09-13T19:36:53.778Z,51470.09
2022-09-13T19:39:20.887Z,51478.03
2022-09-13T19:41:47.992Z,51497.94
2022-09-13T19:44:15.420Z,51529.75
2022-09-13T19:46:43.402Z,51495.94
2022-09-13T19:49:16.703Z,51505.88
2022-09-13T19:51:50.143Z,51476.06
2022-09-13T19:54:19.486Z,51466.13
2022-09-13T19:56:46.636Z,51482.03
2022-09-13T19:59:17.113Z,51456.19
2022-09-13T20:01:46.125Z,51466.13
2022-09-13T20:04:17.682Z,51499.91
2022-09-13T20:06:51.500Z,51472.09
2022-09-13T20:09:20.740Z,51493.94
2022-09-13T20:11:48.980Z,51489.97
2022-09-13T20:14:19.312Z,51444.25
2022-09-13T20:16:47.472Z,51460.16
2022-09-13T20:22:10.069Z,51472.09
2022-09-13T20:24:37.521Z,51482.03
2022-09-13T20:27:04.987Z,51468.09
2022-09-13T20:29:32.109Z,51505.88
2022-09-13T20:31:59.857Z,51446.25
2022-09-13T20:34:27.320Z,51452.19
2022-09-13T20:36:54.522Z,51454.19
2022-09-13T20:39:21.785Z,51488.00
2022-09-13T20:41:50.082Z,51509.84
2022-09-13T20:44:17.563Z,51460.16
2022-09-13T20:46:44.779Z,51478.03
2022-09-13T20:49:12.022Z,51468.09
2022-09-13T20:51:39.210Z,51446.25
2022-09-13T20:54:06.754Z,51466.13
2022-09-13T20:56:34.862Z,51462.16
2022-09-13T20:59:02.714Z,51460.16
2022-09-13T21:01:31.656Z,51474.06
2022-09-13T21:04:00.241Z,51472.09
2022-09-13T21:06:30.733Z,51452.19
2022-09-13T21:09:00.093Z,51466.13
2022-09-13T21:11:35.739Z,51452.19
2022-09-13T21:14:06.475Z,51470.09
2022-09-13T21:16:39.605Z,51454.19
2022-09-13T21:19:08.078Z,51464.13
2022-09-13T21:21:38.868Z,51456.19
2022-09-13T21:24:09.841Z,51446.25
2022-09-13T21:26:42.077Z,51484.00
2022-09-13T21:29:11.525Z,51476.06
2022-09-13T21:31:39.891Z,51472.09
2022-09-13T21:34:18.739Z,51444.25
2022-09-13T21:36:46.914Z,51454.19
2022-09-13T21:39:15.190Z,51464.13
2022-09-13T21:41:43.514Z,51470.09
2022-09-13T21:44:10.915Z,51446.25
2022-09-13T21:46:40.036Z,51468.09
2022-09-13T21:49:11.409Z,51464.13
2022-09-13T21:51:46.794Z,51452.19
2022-09-13T21:54:17.776Z,51454.19
2022-09-13T21:56:51.469Z,51458.16
2022-09-13T21:59:21.610Z,51450.22
2022-09-13T22:01:51.748Z,51452.19
2022-09-13T22:04:25.426Z,51436.28
2022-09-13T22:06:53.765Z,51454.19
2022-09-13T22:09:27.175Z,51454.19
2022-09-13T22:11:55.326Z,51460.16
2022-09-13T22:14:22.605Z,51466.13
2022-09-13T22:16:52.630Z,51495.94
2022-09-13T22:19:26.073Z,51462.16
2022-09-13T22:22:00.021Z,51450.22
2022-09-13T22:24:32.095Z,51472.09
2022-09-13T22:26:59.831Z,51446.25
2022-09-13T22:29:27.449Z,51444.25
2022-09-13T22:31:55.158Z,51474.06
2022-09-13T22:34:24.999Z,51454.19
2022-09-13T22:36:55.311Z,51446.25
2022-09-13T22:39:22.752Z,51460.16
2022-09-13T22:41:49.844Z,51454.19
2022-09-13T22:44:16.939Z,51450.22
2022-09-13T22:46:46.083Z,51454.19
2022-09-13T22:49:17.230Z,51454.19
2022-09-13T22:51:45.598Z,51444.25
2022-09-13T22:54:14.755Z,51444.25
2022-09-13T22:56:42.576Z,51456.19
2022-09-13T22:59:19.906Z,51436.28
2022-09-13T23:01:48.134Z,51476.06
2022-09-13T23:04:15.700Z,51424.38
2022-09-13T23:06:46.435Z,51458.16
2022-09-13T23:09:18.031Z,51428.34
2022-09-13T23:11:46.361Z,51450.22
2022-09-13T23:14:16.807Z,51430.34
2022-09-13T23:16:47.084Z,51444.25
2022-09-13T23:19:15.078Z,51460.16
2022-09-13T23:21:43.685Z,51404.50
2022-09-13T23:24:15.559Z,51434.31
2022-09-13T23:26:44.311Z,51444.25
2022-09-13T23:29:15.224Z,51436.28
2022-09-13T23:31:43.430Z,51474.06
2022-09-13T23:34:12.636Z,51428.34
2022-09-13T23:36:42.126Z,51444.25
2022-09-13T23:39:16.417Z,51430.34
2022-09-13T23:41:45.508Z,51454.19
2022-09-13T23:44:13.111Z,51428.34
2022-09-13T23:46:40.487Z,51430.34
2022-09-13T23:49:07.571Z,51442.25
2022-09-13T23:51:34.725Z,51456.19
2022-09-13T23:54:02.048Z,51442.25
2022-09-13T23:56:31.588Z,51442.25
2022-09-13T23:59:01.148Z,51432.31
